Time;durP1;ratioP1;P1;durP2;ratioP2;P2;SDS_P1;SDS_P2;PMS_P1;PMS_P2;Temp;Humidity;BMP_temperature;BMP_pressure;BME280_temperature;BME280_humidity;BME280_pressure;Samples;Min_cycle;Max_cycle;Signal;HPM_P1;HPM_P2
2022/05/28 00:00:17;;;;;;;10.35;2.60;;;13.50;64.00;;;;;;5093493;28;20036;-74
2022/05/28 00:02:43;;;;;;;9.25;3.00;;;13.50;64.20;;;;;;5093455;28;20029;-74
2022/05/28 00:05:10;;;;;;;9.88;2.67;;;13.40;64.30;;;;;;5093413;28;20025;-74
2022/05/28 00:07:35;;;;;;;6.35;2.30;;;13.30;64.30;;;;;;5093332;28;20047;-73
2022/05/28 00:10:01;;;;;;;9.07;2.67;;;13.30;64.30;;;;;;5093485;28;20066;-74
2022/05/28 00:12:31;;;;;;;9.18;2.70;;;13.30;64.20;;;;;;5093313;28;20064;-73
2022/05/28 00:14:57;;;;;;;8.38;2.90;;;13.30;64.10;;;;;;5093301;28;20460;-74
2022/05/28 00:17:23;;;;;;;10.95;2.55;;;13.30;64.10;;;;;;5093243;28;20020;-74
2022/05/28 00:19:50;;;;;;;5.60;2.00;;;13.30;64.30;;;;;;5093273;28;20028;-74
2022/05/28 00:22:16;;;;;;;9.68;2.53;;;13.30;64.50;;;;;;5093223;28;20166;-73
2022/05/28 00:24:41;;;;;;;6.50;2.58;;;13.30;64.40;;;;;;5092159;28;20029;-74
2022/05/28 00:27:07;;;;;;;9.13;2.53;;;13.30;64.50;;;;;;5092952;28;20082;-74
2022/05/28 00:29:32;;;;;;;7.75;2.40;;;13.20;64.60;;;;;;5093048;28;20028;-74
2022/05/28 00:31:58;;;;;;;8.00;2.30;;;13.30;64.60;;;;;;5093124;28;20055;-74
2022/05/28 00:34:24;;;;;;;7.53;2.45;;;13.30;64.60;;;;;;5093217;28;20029;-74
2022/05/28 00:36:50;;;;;;;9.18;2.63;;;13.30;64.60;;;;;;5093051;28;20073;-74
2022/05/28 00:39:15;;;;;;;7.75;2.80;;;13.30;64.70;;;;;;5093048;28;20044;-74
2022/05/28 00:41:41;;;;;;;12.70;3.50;;;13.20;64.80;;;;;;5093054;28;20036;-74
2022/05/28 00:44:07;;;;;;;10.00;2.65;;;13.10;65.10;;;;;;5092017;28;20024;-74
2022/05/28 00:46:33;;;;;;;11.50;2.72;;;13.10;65.30;;;;;;5092889;28;20088;-74
2022/05/28 00:49:03;;;;;;;6.60;2.17;;;13.10;65.30;;;;;;5091911;28;20032;-74
2022/05/28 00:51:33;;;;;;;8.32;2.38;;;13.20;65.40;;;;;;5093041;28;20076;-74
2022/05/28 00:54:01;;;;;;;8.38;2.50;;;13.20;65.40;;;;;;5092975;28;20024;-74
2022/05/28 00:56:28;;;;;;;15.73;2.78;;;13.20;65.50;;;;;;5092884;28;20384;-74
2022/05/28 00:58:54;;;;;;;7.25;2.55;;;13.20;65.80;;;;;;5092983;28;20017;-74
2022/05/28 01:01:23;;;;;;;8.00;2.83;;;13.20;66.40;;;;;;5092854;28;20017;-74
2022/05/28 01:04:00;;;;;;;10.50;2.60;;;13.20;65.50;;;;;;5092803;28;20017;-74
2022/05/28 01:06:26;;;;;;;11.82;2.72;;;13.30;65.30;;;;;;5092893;28;20021;-74
2022/05/28 01:09:06;;;;;;;11.73;3.40;;;13.30;65.40;;;;;;5092979;28;20383;-74
2022/05/28 01:11:45;;;;;;;8.93;3.00;;;13.40;65.30;;;;;;5096807;28;20024;-74
2022/05/28 01:14:48;;;;;;;13.43;2.88;;;13.40;65.10;;;;;;5096632;28;20023;-74
2022/05/28 01:17:19;;;;;;;7.03;2.63;;;13.50;64.90;;;;;;5095597;28;20040;-74
2022/05/28 01:20:07;;;;;;;10.45;2.65;;;13.50;64.80;;;;;;5096513;28;20555;-74
2022/05/28 01:22:55;;;;;;;12.77;3.10;;;13.50;64.60;;;;;;5096522;28;20017;-74
2022/05/28 01:25:44;;;;;;;9.30;2.92;;;13.50;64.50;;;;;;5096422;28;20084;-74
2022/05/28 01:28:14;;;;;;;7.38;2.72;;;13.50;64.90;;;;;;5095998;28;20045;-73
2022/05/28 01:30:42;;;;;;;10.45;2.60;;;13.50;64.80;;;;;;5096289;28;20021;-74
2022/05/28 01:33:09;;;;;;;10.68;2.67;;;13.40;64.80;;;;;;5096222;28;20031;-74
2022/05/28 01:35:35;;;;;;;8.65;2.40;;;13.40;64.80;;;;;;5096210;28;20024;-74
2022/05/28 01:38:02;;;;;;;12.80;3.45;;;13.40;65.10;;;;;;5096147;28;20039;-74
2022/05/28 01:40:29;;;;;;;12.18;2.92;;;13.40;65.20;;;;;;5096066;28;20032;-74
2022/05/28 01:42:57;;;;;;;8.55;2.53;;;13.30;65.40;;;;;;5096026;28;20025;-74
2022/05/28 01:45:27;;;;;;;11.75;2.85;;;13.30;65.60;;;;;;5096015;28;20111;-74
2022/05/28 01:47:55;;;;;;;5.93;2.70;;;13.40;66.40;;;;;;5095898;28;20020;-74
2022/05/28 01:50:25;;;;;;;7.30;2.83;;;13.40;65.50;;;;;;5095933;28;20137;-74
2022/05/28 01:52:52;;;;;;;13.23;2.92;;;13.40;65.60;;;;;;5095983;28;20016;-74
2022/05/28 01:55:20;;;;;;;12.23;3.38;;;13.30;65.60;;;;;;5095799;28;20027;-74
2022/05/28 01:57:46;;;;;;;9.52;2.70;;;13.30;66.00;;;;;;5095807;28;20553;-74
2022/05/28 02:00:12;;;;;;;9.85;2.70;;;13.30;66.10;;;;;;5095563;28;20024;-74
2022/05/28 02:02:38;;;;;;;8.80;2.95;;;13.30;66.30;;;;;;5095827;28;20092;-74
2022/05/28 02:05:05;;;;;;;9.35;3.30;;;13.30;66.30;;;;;;5095631;28;20025;-74
2022/05/28 02:07:31;;;;;;;12.77;3.50;;;13.30;66.20;;;;;;5095523;28;20027;-74
2022/05/28 02:10:09;;;;;;;10.82;2.67;;;13.30;66.20;;;;;;5095573;28;20040;-74
2022/05/28 02:12:37;;;;;;;11.00;3.03;;;13.30;66.10;;;;;;5095588;28;20017;-74
2022/05/28 02:15:25;;;;;;;9.15;2.75;;;13.30;66.30;;;;;;5095465;28;20020;-74
2022/05/28 02:17:55;;;;;;;11.70;3.25;;;13.30;66.60;;;;;;5095509;28;20035;-74
2022/05/28 02:20:35;;;;;;;8.43;3.03;;;13.20;66.70;;;;;;5095207;28;20027;-74
2022/05/28 02:23:08;;;;;;;8.93;2.80;;;13.20;67.20;;;;;;5094475;28;20024;-74
2022/05/28 02:25:41;;;;;;;12.75;3.17;;;13.10;67.30;;;;;;5095461;28;20046;-74
2022/05/28 02:28:08;;;;;;;9.88;2.83;;;13.10;67.60;;;;;;5094959;28;20049;-74
2022/05/28 02:30:48;;;;;;;8.95;2.85;;;13.00;68.30;;;;;;5095170;28;20024;-73
2022/05/28 02:33:14;;;;;;;6.50;2.97;;;12.90;68.70;;;;;;5095176;28;20025;-74
2022/05/28 02:35:40;;;;;;;9.63;2.92;;;12.90;68.80;;;;;;5095067;28;20027;-74
2022/05/28 02:38:06;;;;;;;10.23;3.00;;;12.80;69.20;;;;;;5095036;28;20120;-74
2022/05/28 02:40:32;;;;;;;9.95;3.45;;;12.90;70.30;;;;;;5094962;28;20044;-74
2022/05/28 02:42:57;;;;;;;10.35;3.20;;;12.80;69.60;;;;;;5094958;28;20096;-74
2022/05/28 02:45:23;;;;;;;9.80;4.13;;;12.80;70.00;;;;;;5094892;28;20048;-74
2022/05/28 02:47:49;;;;;;;11.73;3.08;;;12.80;69.70;;;;;;5094529;28;20035;-74
2022/05/28 02:50:14;;;;;;;11.50;3.35;;;12.80;70.00;;;;;;5094800;28;20047;-74
2022/05/28 02:52:40;;;;;;;9.88;2.80;;;12.80;70.20;;;;;;5094870;28;20455;-74
2022/05/28 02:55:06;;;;;;;10.68;3.10;;;12.80;70.00;;;;;;5094664;28;20032;-73
2022/05/28 02:57:32;;;;;;;13.88;3.33;;;12.80;70.00;;;;;;5094640;28;20033;-74
2022/05/28 02:59:57;;;;;;;11.85;3.25;;;12.90;69.80;;;;;;5094572;28;20052;-74
2022/05/28 03:02:27;;;;;;;9.23;3.08;;;12.90;69.90;;;;;;5094514;28;20033;-74
2022/05/28 03:04:52;;;;;;;10.07;2.80;;;12.90;70.00;;;;;;5094498;28;20074;-74
2022/05/28 03:07:18;;;;;;;8.00;3.42;;;12.90;69.90;;;;;;5094519;28;20037;-74
2022/05/28 03:09:44;;;;;;;9.23;2.67;;;13.00;69.70;;;;;;5094408;28;20024;-74
2022/05/28 03:12:10;;;;;;;11.85;3.22;;;13.00;69.50;;;;;;5094346;28;20361;-74
2022/05/28 03:14:36;;;;;;;12.77;2.97;;;13.00;69.30;;;;;;5094272;28;20024;-74
2022/05/28 03:17:02;;;;;;;13.02;3.05;;;13.00;69.30;;;;;;5094193;28;20411;-74
2022/05/28 03:19:27;;;;;;;12.48;2.90;;;12.90;69.50;;;;;;5094165;28;20021;-74
2022/05/28 03:21:53;;;;;;;10.65;3.38;;;12.90;69.50;;;;;;5094144;28;20032;-73
2022/05/28 03:24:19;;;;;;;8.38;2.83;;;12.90;69.80;;;;;;5094093;28;20054;-74
2022/05/28 03:26:44;;;;;;;10.43;3.58;;;12.90;69.90;;;;;;5093798;28;20137;-74
2022/05/28 03:29:10;;;;;;;9.90;3.20;;;12.90;70.10;;;;;;5094043;28;20135;-74
2022/05/28 03:31:35;;;;;;;7.00;2.83;;;12.80;70.30;;;;;;5093472;28;20029;-74
2022/05/28 03:34:01;;;;;;;11.57;3.10;;;12.80;70.40;;;;;;5093815;28;20017;-74
2022/05/28 03:36:28;;;;;;;9.18;2.90;;;12.80;70.60;;;;;;5093868;28;20029;-74
2022/05/28 03:38:53;;;;;;;10.50;3.13;;;12.80;70.60;;;;;;5093728;28;20051;-74
2022/05/28 03:41:20;;;;;;;8.50;3.10;;;12.80;70.80;;;;;;5093787;28;20025;-74
2022/05/28 03:43:46;;;;;;;8.82;2.55;;;12.80;70.90;;;;;;5093744;28;20024;-74
2022/05/28 03:46:42;;;;;;;12.85;3.38;;;12.90;71.00;;;;;;5093694;28;20025;-74
2022/05/28 03:49:14;;;;;;;11.05;2.45;;;12.90;71.70;;;;;;5081298;28;20028;-74
2022/05/28 03:51:39;;;;;;;6.57;2.40;;;12.90;71.10;;;;;;5092781;28;20036;-74
2022/05/28 03:54:05;;;;;;;10.80;2.90;;;12.90;71.20;;;;;;5093602;28;20592;-74
2022/05/28 03:56:36;;;;;;;7.50;2.50;;;12.90;71.30;;;;;;5093540;28;20033;-74
2022/05/28 03:59:04;;;;;;;7.10;2.67;;;12.90;71.70;;;;;;5093537;28;20027;-74
2022/05/28 04:01:29;;;;;;;10.02;2.67;;;12.90;71.50;;;;;;5093500;28;20481;-74
2022/05/28 04:03:55;;;;;;;12.68;3.03;;;13.00;72.40;;;;;;5093462;28;20047;-74
2022/05/28 04:06:22;;;;;;;7.85;2.55;;;13.00;71.50;;;;;;5093464;28;20032;-74
2022/05/28 04:08:48;;;;;;;8.45;2.45;;;13.10;71.60;;;;;;5093527;28;20025;-74
2022/05/28 04:11:14;;;;;;;8.45;2.50;;;13.10;71.60;;;;;;5093346;28;20036;-74
2022/05/28 04:13:40;;;;;;;8.10;2.83;;;13.10;71.50;;;;;;5093364;28;20030;-74
2022/05/28 04:16:06;;;;;;;8.98;2.75;;;13.20;71.80;;;;;;5093333;28;20510;-73
2022/05/28 04:18:32;;;;;;;8.27;2.70;;;13.10;71.90;;;;;;5093387;28;20080;-74
2022/05/28 04:20:57;;;;;;;8.35;2.70;;;13.20;71.90;;;;;;5093245;28;20078;-74
2022/05/28 04:23:23;;;;;;;7.15;2.28;;;13.20;71.90;;;;;;5093189;28;20088;-74
2022/05/28 04:25:49;;;;;;;11.80;2.63;;;13.20;71.90;;;;;;5093193;28;20080;-74
2022/05/28 04:28:14;;;;;;;9.10;2.83;;;13.30;72.00;;;;;;5092880;28;20523;-74
2022/05/28 04:30:40;;;;;;;8.15;2.53;;;13.30;72.10;;;;;;5093161;28;20077;-74
2022/05/28 04:33:06;;;;;;;11.25;2.50;;;13.30;72.10;;;;;;5093248;28;20029;-74
2022/05/28 04:35:31;;;;;;;9.63;2.58;;;13.30;72.30;;;;;;5093099;28;20048;-74
2022/05/28 04:37:57;;;;;;;8.73;2.53;;;13.30;72.50;;;;;;5093097;28;20039;-74
2022/05/28 04:40:23;;;;;;;11.68;2.95;;;13.30;72.40;;;;;;5093097;28;20036;-74
2022/05/28 04:42:48;;;;;;;10.93;2.17;;;13.40;72.40;;;;;;5093171;28;20055;-73
2022/05/28 04:45:14;;;;;;;8.23;2.30;;;13.40;72.70;;;;;;5097212;28;20033;-74
2022/05/28 04:47:40;;;;;;;8.20;2.40;;;13.40;72.50;;;;;;5097115;28;20071;-74
2022/05/28 04:50:06;;;;;;;11.25;2.30;;;13.40;72.50;;;;;;5097225;28;20032;-74
2022/05/28 04:52:32;;;;;;;11.30;2.00;;;13.50;72.60;;;;;;5095967;28;20054;-74
2022/05/28 04:54:57;;;;;;;8.90;2.38;;;13.50;72.60;;;;;;5097111;28;20029;-74
2022/05/28 04:57:23;;;;;;;7.03;2.38;;;13.60;73.40;;;;;;5096010;28;20037;-74
2022/05/28 04:59:49;;;;;;;8.23;2.00;;;13.50;73.00;;;;;;5097025;28;20092;-74
2022/05/28 05:02:15;;;;;;;9.55;2.13;;;13.60;72.60;;;;;;5096889;28;20048;-74
2022/05/28 05:04:41;;;;;;;8.30;2.10;;;13.60;72.60;;;;;;5096821;28;20024;-74
2022/05/28 05:07:07;;;;;;;6.43;1.77;;;13.60;72.60;;;;;;5096712;28;20029;-74
2022/05/28 05:09:32;;;;;;;9.18;1.52;;;13.60;72.40;;;;;;5096723;28;20082;-74
2022/05/28 05:11:58;;;;;;;8.20;1.70;;;13.60;72.10;;;;;;5096679;28;20039;-74
2022/05/28 05:14:24;;;;;;;6.57;1.45;;;13.70;72.00;;;;;;5096595;28;20024;-74
2022/05/28 05:16:50;;;;;;;8.23;1.55;;;13.70;72.00;;;;;;5096589;28;20028;-74
2022/05/28 05:19:15;;;;;;;7.10;1.48;;;13.70;72.50;;;;;;5096545;28;20039;-74
2022/05/28 05:21:41;;;;;;;7.82;1.40;;;13.70;71.80;;;;;;5096478;28;20036;-74
2022/05/28 05:24:07;;;;;;;7.00;1.60;;;13.70;71.60;;;;;;5095526;28;20036;-74
2022/05/28 05:26:32;;;;;;;10.27;1.55;;;13.70;71.40;;;;;;5095167;28;20036;-73
2022/05/28 05:28:58;;;;;;;8.20;1.50;;;13.70;71.30;;;;;;5095352;28;20468;-74
2022/05/28 05:31:24;;;;;;;7.30;1.45;;;13.70;71.40;;;;;;5096306;28;20035;-74
2022/05/28 05:33:49;;;;;;;8.02;2.13;;;13.70;71.10;;;;;;5096233;28;20021;-73
2022/05/28 05:36:15;;;;;;;22.58;2.47;;;13.80;71.00;;;;;;5096172;28;20080;-74
2022/05/28 05:38:41;;;;;;;6.63;1.20;;;13.80;70.90;;;;;;5096179;28;20044;-74
2022/05/28 05:41:07;;;;;;;6.35;1.45;;;13.80;70.60;;;;;;5096145;28;20024;-74
2022/05/28 05:43:33;;;;;;;7.50;1.75;;;13.90;70.40;;;;;;5096073;28;20051;-74
2022/05/28 05:46:00;;;;;;;8.50;2.03;;;13.90;70.20;;;;;;5096002;28;20096;-74
2022/05/28 05:48:27;;;;;;;4.32;1.55;;;13.90;70.30;;;;;;5095908;28;20021;-74
2022/05/28 05:50:52;;;;;;;4.68;1.45;;;14.00;69.80;;;;;;5095919;28;20028;-74
2022/05/28 05:53:19;;;;;;;6.97;1.20;;;13.90;69.60;;;;;;5095943;28;20032;-75
2022/05/28 05:55:45;;;;;;;5.30;1.52;;;13.90;68.80;;;;;;5095154;28;20024;-73
2022/05/28 05:58:11;;;;;;;7.90;1.45;;;13.90;68.70;;;;;;5095833;28;20029;-74
2022/05/28 06:00:37;;;;;;;11.65;1.80;;;13.90;68.80;;;;;;5095893;28;20044;-75
2022/05/28 06:03:03;;;;;;;5.22;1.10;;;14.00;69.00;;;;;;5095716;28;20028;-75
2022/05/28 06:05:29;;;;;;;7.22;1.60;;;14.00;68.60;;;;;;5095688;28;20097;-74
2022/05/28 06:07:54;;;;;;;6.57;1.27;;;14.00;68.50;;;;;;5095602;28;20056;-75
2022/05/28 06:10:20;;;;;;;5.53;1.35;;;14.00;68.10;;;;;;5095633;28;20044;-75
2022/05/28 06:12:46;;;;;;;10.43;1.50;;;14.00;68.30;;;;;;5095605;28;20031;-75
2022/05/28 06:15:12;;;;;;;7.75;1.48;;;14.10;67.70;;;;;;5095542;28;20021;-74
2022/05/28 06:17:38;;;;;;;4.55;0.90;;;14.10;66.80;;;;;;5095479;28;20084;-74
2022/05/28 06:20:08;;;;;;;7.72;1.10;;;14.10;67.00;;;;;;5095437;28;20024;-75
2022/05/28 06:22:33;;;;;;;4.85;1.25;;;14.10;67.10;;;;;;5095383;28;20081;-74
2022/05/28 06:24:59;;;;;;;6.15;1.10;;;14.20;66.90;;;;;;5095322;28;20479;-74
2022/05/28 06:27:25;;;;;;;8.05;1.10;;;14.20;66.50;;;;;;5095051;28;20075;-74
2022/05/28 06:29:52;;;;;;;5.95;1.15;;;14.20;66.10;;;;;;5095139;28;20027;-75
2022/05/28 06:32:18;;;;;;;3.83;0.90;;;14.20;64.80;;;;;;5094814;28;20042;-74
2022/05/28 06:34:43;;;;;;;4.95;0.95;;;14.20;64.50;;;;;;5093693;28;20475;-73
2022/05/28 06:37:10;;;;;;;2.92;0.70;;;14.20;63.50;;;;;;5094772;28;20052;-74
2022/05/28 06:39:36;;;;;;;3.88;1.13;;;14.30;64.00;;;;;;5094804;28;20021;-73
2022/05/28 06:42:03;;;;;;;5.30;1.20;;;14.40;65.50;;;;;;5094693;28;20130;-73
2022/05/28 06:44:29;;;;;;;6.18;1.00;;;14.40;63.70;;;;;;5094615;28;20048;-73
2022/05/28 06:46:54;;;;;;;7.28;1.00;;;14.40;63.00;;;;;;5094424;28;20123;-72
2022/05/28 06:49:20;;;;;;;5.55;0.70;;;14.50;62.90;;;;;;5094555;28;20032;-73
2022/05/28 06:51:46;;;;;;;5.20;0.93;;;14.50;62.10;;;;;;5094413;28;20365;-73
2022/05/28 06:54:12;;;;;;;5.18;1.75;;;14.50;62.00;;;;;;5094453;28;20087;-73
2022/05/28 06:56:37;;;;;;;4.00;0.70;;;14.50;62.70;;;;;;5094433;28;20048;-73
2022/05/28 06:59:03;;;;;;;7.07;0.90;;;14.50;61.30;;;;;;5094341;28;20028;-73
2022/05/28 07:01:29;;;;;;;8.95;1.08;;;14.50;60.60;;;;;;5093315;28;20023;-73
2022/05/28 07:03:55;;;;;;;4.13;1.00;;;14.50;61.00;;;;;;5094293;28;20024;-73
2022/05/28 07:06:21;;;;;;;3.08;0.90;;;14.50;61.00;;;;;;5093605;28;20036;-74
2022/05/28 07:08:46;;;;;;;8.88;1.05;;;14.60;60.40;;;;;;5093654;28;20032;-73
2022/05/28 07:11:12;;;;;;;5.38;0.90;;;14.60;60.20;;;;;;5093994;28;20035;-73
2022/05/28 07:13:38;;;;;;;3.55;0.90;;;14.70;60.20;;;;;;5093965;28;20048;-73
2022/05/28 07:16:05;;;;;;;5.65;1.08;;;14.70;60.60;;;;;;5093974;28;20028;-75
2022/05/28 07:18:32;;;;;;;4.30;0.80;;;14.70;60.60;;;;;;5093956;28;20028;-74
2022/05/28 07:20:58;;;;;;;3.10;0.85;;;14.80;61.10;;;;;;5093961;28;20032;-74
2022/05/28 07:23:26;;;;;;;5.57;0.77;;;14.80;59.90;;;;;;5093863;28;20056;-76
2022/05/28 07:26:10;;;;;;;5.60;1.30;;;14.90;59.80;;;;;;5093780;28;20059;-74
2022/05/28 07:28:38;;;;;;;3.53;0.88;;;15.00;59.50;;;;;;5093646;28;20036;-74
2022/05/28 07:31:15;;;;;;;5.40;1.02;;;15.10;59.60;;;;;;5092674;28;20024;-74
2022/05/28 07:33:43;;;;;;;7.38;1.17;;;15.20;58.50;;;;;;5093664;28;20040;-74
2022/05/28 07:36:12;;;;;;;5.70;1.20;;;15.20;56.90;;;;;;5093612;28;20021;-74
2022/05/28 07:38:38;;;;;;;5.40;0.90;;;15.30;57.30;;;;;;5093518;28;20055;-74
2022/05/28 07:41:26;;;;;;;5.03;0.90;;;15.30;55.90;;;;;;5093496;28;20025;-74
2022/05/28 07:43:53;;;;;;;2.22;0.50;;;15.20;57.10;;;;;;5093369;28;20048;-74
2022/05/28 07:46:24;;;;;;;5.13;0.95;;;15.20;55.60;;;;;;5093401;28;20028;-74
2022/05/28 07:48:50;;;;;;;4.35;1.00;;;15.20;55.00;;;;;;5093314;28;20029;-74
2022/05/28 07:51:16;;;;;;;4.05;0.60;;;15.20;54.50;;;;;;5093185;28;20029;-74
2022/05/28 07:53:42;;;;;;;3.30;0.90;;;15.30;54.60;;;;;;5093210;28;20033;-74
2022/05/28 07:56:09;;;;;;;4.05;0.75;;;15.40;54.30;;;;;;5093207;28;20175;-74
2022/05/28 07:58:35;;;;;;;4.97;0.93;;;15.50;54.10;;;;;;5093192;28;20052;-74
2022/05/28 08:01:02;;;;;;;1.77;0.47;;;15.60;55.10;;;;;;5093133;28;20417;-74
2022/05/28 08:03:29;;;;;;;7.25;0.80;;;15.70;54.90;;;;;;5093161;28;20502;-74
2022/05/28 08:05:55;;;;;;;5.32;0.65;;;15.90;53.80;;;;;;5093083;28;20024;-74
2022/05/28 08:08:23;;;;;;;6.38;1.10;;;15.90;52.70;;;;;;5093068;28;20028;-74
2022/05/28 08:10:50;;;;;;;5.78;0.80;;;16.00;49.50;;;;;;5093103;28;20359;-74
2022/05/28 08:13:19;;;;;;;3.63;0.63;;;16.00;49.50;;;;;;5092040;28;20028;-74
2022/05/28 08:15:46;;;;;;;3.22;0.75;;;16.00;50.10;;;;;;5092998;28;20021;-74
2022/05/28 08:18:16;;;;;;;4.07;0.80;;;16.10;49.90;;;;;;5092704;28;20056;-74
2022/05/28 08:23:27;;;;;;;8.30;0.90;;;16.30;50.00;;;;;;5093087;28;20043;-75
2022/05/28 08:25:53;;;;;;;4.75;0.90;;;16.40;50.10;;;;;;5092992;28;20379;-75
2022/05/28 08:28:20;;;;;;;5.88;1.27;;;16.40;50.60;;;;;;5092569;28;20407;-75
2022/05/28 08:30:47;;;;;;;4.47;0.70;;;16.60;51.00;;;;;;5092821;28;20055;-75
2022/05/28 08:33:15;;;;;;;5.15;0.88;;;16.60;50.20;;;;;;5092769;28;20025;-75
2022/05/28 08:35:42;;;;;;;6.18;0.85;;;16.80;50.80;;;;;;5092788;28;20016;-75
2022/05/28 08:38:13;;;;;;;4.68;0.80;;;16.90;50.00;;;;;;5091723;28;20020;-74
2022/05/28 08:40:58;;;;;;;1.23;0.55;;;16.90;48.40;;;;;;5091809;28;20070;-75
2022/05/28 08:43:29;;;;;;;5.75;0.90;;;17.00;47.70;;;;;;5092839;28;20020;-75
2022/05/28 08:45:56;;;;;;;4.65;0.80;;;16.90;47.50;;;;;;5092664;28;20028;-74
2022/05/28 08:48:48;;;;;;;2.25;0.80;;;17.00;47.50;;;;;;5092605;28;20029;-74
2022/05/28 08:51:38;;;;;;;7.17;1.17;;;17.10;47.40;;;;;;5092309;28;20047;-75
2022/05/28 08:54:13;;;;;;;4.90;0.90;;;17.10;47.50;;;;;;5092763;28;20514;-74
2022/05/28 08:56:39;;;;;;;4.63;0.82;;;17.00;48.70;;;;;;5092618;28;20032;-75
2022/05/28 08:59:26;;;;;;;5.75;1.08;;;17.00;48.50;;;;;;5092603;28;20025;-75
2022/05/28 09:01:52;;;;;;;4.07;0.80;;;16.80;48.10;;;;;;5092559;28;20016;-75
2022/05/28 09:04:26;;;;;;;3.55;1.02;;;16.70;48.70;;;;;;5092632;28;20022;-75
2022/05/28 09:06:54;;;;;;;3.50;0.90;;;16.80;49.40;;;;;;5092428;28;20060;-75
2022/05/28 09:09:34;;;;;;;4.45;0.75;;;16.90;49.60;;;;;;5092428;28;20090;-74
2022/05/28 09:12:07;;;;;;;5.28;1.10;;;17.00;49.20;;;;;;5092577;28;20076;-74
2022/05/28 09:14:38;;;;;;;6.03;1.40;;;17.10;49.50;;;;;;5092411;28;20084;-75
2022/05/28 09:17:25;;;;;;;6.93;1.00;;;17.20;49.30;;;;;;5091558;28;20092;-75
2022/05/28 09:19:56;;;;;;;4.57;1.20;;;17.40;49.70;;;;;;5092496;28;20029;-75
2022/05/28 09:22:24;;;;;;;5.25;1.15;;;17.40;49.90;;;;;;5091461;28;20040;-75
2022/05/28 09:24:50;;;;;;;7.38;1.50;;;17.40;48.60;;;;;;5092354;28;20032;-75
2022/05/28 09:27:29;;;;;;;5.63;1.30;;;17.30;47.20;;;;;;5092010;28;20074;-75
2022/05/28 09:30:19;;;;;;;3.50;0.90;;;17.20;44.70;;;;;;5092463;28;20031;-75
2022/05/28 09:32:59;;;;;;;4.80;0.90;;;17.20;45.30;;;;;;5095954;28;20460;-74
2022/05/28 09:35:43;;;;;;;3.83;1.05;;;17.30;44.70;;;;;;5096068;28;20025;-75
2022/05/28 09:38:16;;;;;;;4.60;0.93;;;17.30;44.40;;;;;;5095952;28;20050;-75
2022/05/28 09:41:08;;;;;;;5.13;0.88;;;17.40;45.00;;;;;;5095982;28;20120;-75
2022/05/28 09:44:03;;;;;;;2.20;0.90;;;17.60;45.00;;;;;;5095559;28;20099;-75
2022/05/28 09:46:40;;;;;;;2.90;0.75;;;17.60;43.80;;;;;;5095786;28;20026;-75
2022/05/28 09:49:16;;;;;;;2.38;0.88;;;17.60;43.20;;;;;;5095605;28;20032;-75
2022/05/28 09:52:09;;;;;;;4.38;0.90;;;17.50;42.90;;;;;;5095593;28;20024;-75
2022/05/28 09:54:36;;;;;;;4.63;0.73;;;17.40;42.40;;;;;;5095625;28;20388;-74
2022/05/28 09:57:09;;;;;;;4.03;0.93;;;17.40;43.80;;;;;;5095470;28;20020;-74
2022/05/28 09:59:43;;;;;;;7.78;1.02;;;17.50;44.40;;;;;;5095517;28;20017;-74
2022/05/28 10:02:26;;;;;;;7.32;1.00;;;17.60;45.70;;;;;;5095395;28;20513;-74
2022/05/28 10:05:09;;;;;;;3.83;0.90;;;17.70;45.60;;;;;;5095577;28;20024;-74
2022/05/28 10:07:39;;;;;;;2.85;0.82;;;17.80;45.20;;;;;;5095423;28;20024;-75
2022/05/28 10:10:22;;;;;;;3.92;0.95;;;17.90;45.60;;;;;;5095317;28;20020;-75
2022/05/28 10:12:49;;;;;;;4.25;0.85;;;18.00;42.20;;;;;;5095452;28;20051;-75
2022/05/28 10:15:20;;;;;;;2.13;0.70;;;17.90;42.90;;;;;;5095226;28;20027;-75
2022/05/28 10:18:02;;;;;;;4.18;0.68;;;17.90;42.80;;;;;;5093964;28;20047;-75
2022/05/28 10:20:29;;;;;;;4.30;0.90;;;18.10;42.30;;;;;;5095263;28;20025;-75
2022/05/28 10:22:57;;;;;;;3.95;1.13;;;18.20;43.80;;;;;;5095415;28;20059;-75
2022/05/28 10:25:37;;;;;;;3.70;0.98;;;18.20;41.90;;;;;;5095250;28;20054;-75
2022/05/28 10:28:04;;;;;;;5.80;1.05;;;18.30;42.00;;;;;;5095026;28;20055;-75
2022/05/28 10:30:43;;;;;;;2.42;0.65;;;18.40;43.00;;;;;;5095365;28;20025;-74
2022/05/28 10:33:16;;;;;;;4.18;0.90;;;18.40;42.70;;;;;;5095174;28;20027;-75
2022/05/28 10:35:42;;;;;;;5.80;1.10;;;18.40;42.90;;;;;;5095145;28;20020;-75
2022/05/28 10:38:28;;;;;;;2.42;0.77;;;18.30;42.50;;;;;;5094020;28;20021;-76
2022/05/28 10:41:00;;;;;;;6.60;1.00;;;18.20;42.40;;;;;;5094963;28;20111;-75
2022/05/28 10:43:25;;;;;;;5.15;1.33;;;18.20;43.50;;;;;;5094962;28;20020;-75
2022/05/28 10:46:08;;;;;;;8.55;1.20;;;18.40;43.70;;;;;;5095051;28;20059;-75
2022/05/28 10:49:01;;;;;;;6.13;0.90;;;18.50;43.40;;;;;;5094857;28;20024;-75
2022/05/28 10:51:42;;;;;;;4.03;0.90;;;18.50;41.60;;;;;;5094796;28;20078;-76
2022/05/28 10:54:28;;;;;;;4.90;0.98;;;18.30;41.70;;;;;;5094820;28;20020;-75
2022/05/28 10:57:14;;;;;;;5.97;1.10;;;18.20;41.00;;;;;;5094843;28;20025;-75
2022/05/28 10:59:54;;;;;;;3.40;1.00;;;18.20;41.30;;;;;;5094722;28;20082;-74
2022/05/28 11:02:46;;;;;;;6.07;1.10;;;18.20;42.10;;;;;;5094651;28;20020;-75
2022/05/28 11:05:47;;;;;;;6.28;1.15;;;18.20;42.00;;;;;;5063499;28;20100;-75
2022/05/28 11:08:25;;;;;;;4.45;1.17;;;18.20;42.60;;;;;;5094453;28;20043;-75
2022/05/28 11:11:08;;;;;;;4.55;1.20;;;18.20;43.30;;;;;;5094638;28;20078;-75
2022/05/28 11:14:10;;;;;;;6.78;1.45;;;18.30;43.10;;;;;;5094411;28;20024;-75
2022/05/28 11:16:47;;;;;;;8.07;1.10;;;18.50;43.00;;;;;;5094483;28;20021;-75
2022/05/28 11:19:43;;;;;;;4.03;1.10;;;18.70;44.00;;;;;;5094425;28;20044;-75
2022/05/28 11:22:30;;;;;;;4.30;1.17;;;18.80;44.10;;;;;;5094260;28;20024;-74
2022/05/28 11:25:05;;;;;;;6.15;1.48;;;18.80;43.50;;;;;;5094168;28;20017;-76
2022/05/28 11:27:59;;;;;;;4.47;1.20;;;18.80;43.30;;;;;;5093897;28;20372;-76
2022/05/28 11:30:38;;;;;;;3.97;1.20;;;18.70;43.20;;;;;;5093012;28;20025;-75
2022/05/28 11:33:27;;;;;;;4.90;1.08;;;18.70;41.80;;;;;;5093051;28;20031;-76
2022/05/28 11:36:00;;;;;;;4.88;1.10;;;18.80;41.30;;;;;;5093974;28;20099;-76
2022/05/28 11:38:33;;;;;;;5.28;1.13;;;19.00;41.70;;;;;;5093933;28;20035;-75
2022/05/28 11:41:10;;;;;;;5.10;1.15;;;19.10;40.30;;;;;;5093947;28;20024;-76
2022/05/28 11:43:45;;;;;;;3.38;0.90;;;19.10;39.70;;;;;;5093962;28;20084;-76
2022/05/28 11:46:24;;;;;;;5.90;1.05;;;19.20;39.50;;;;;;5093837;28;20028;-76
2022/05/28 11:52:12;;;;;;;6.18;1.23;;;19.30;40.00;;;;;;5093884;28;20395;-76
2022/05/28 11:55:02;;;;;;;4.88;1.00;;;19.40;38.90;;;;;;5093202;28;20023;-76
2022/05/28 11:57:38;;;;;;;3.40;1.10;;;19.50;39.00;;;;;;5093797;28;20055;-75
2022/05/28 12:00:07;;;;;;;4.95;1.10;;;19.40;39.30;;;;;;5093642;28;20020;-76
2022/05/28 12:02:38;;;;;;;3.70;1.00;;;19.40;39.00;;;;;;5093638;28;20056;-76
2022/05/28 12:05:19;;;;;;;3.95;1.15;;;19.40;39.10;;;;;;5093548;28;20111;-76
2022/05/28 12:07:52;;;;;;;5.97;1.20;;;19.40;38.40;;;;;;5092411;28;20088;-76
2022/05/28 12:10:54;;;;;;;3.97;1.00;;;19.50;41.10;;;;;;5093502;28;20050;-76
2022/05/28 12:13:32;;;;;;;6.13;1.30;;;19.40;39.70;;;;;;5093455;28;20048;-76
2022/05/28 12:16:31;;;;;;;4.75;1.45;;;19.40;40.40;;;;;;5093402;28;20024;-76
2022/05/28 12:19:21;;;;;;;4.90;1.20;;;19.30;40.30;;;;;;5093462;28;20107;-77
2022/05/28 12:21:47;;;;;;;6.28;0.98;;;19.40;41.60;;;;;;5093325;28;20047;-76
2022/05/28 12:24:19;;;;;;;5.40;1.25;;;19.50;41.00;;;;;;5093250;28;20096;-76
2022/05/28 12:29:38;;;;;;;4.22;1.35;;;19.70;39.90;;;;;;5093176;28;20092;-76
2022/05/28 12:32:16;;;;;;;3.78;1.30;;;19.70;40.40;;;;;;5093351;28;20021;-76
2022/05/28 12:34:59;;;;;;;3.95;1.10;;;19.70;38.60;;;;;;5093182;28;20021;-76
2022/05/28 12:37:36;;;;;;;5.28;1.20;;;19.70;39.10;;;;;;5093164;28;20047;-76
2022/05/28 12:40:43;;;;;;;5.25;0.98;;;19.60;38.10;;;;;;5093264;28;20078;-76
2022/05/28 12:43:24;;;;;;;5.00;0.95;;;19.60;36.90;;;;;;5079647;28;20100;-77
2022/05/28 12:45:53;;;;;;;2.92;0.80;;;19.50;38.70;;;;;;5093122;28;20080;-76
2022/05/28 12:48:31;;;;;;;6.75;1.00;;;19.50;38.20;;;;;;5092082;28;20029;-76
2022/05/28 12:51:34;;;;;;;4.40;0.98;;;19.60;36.50;;;;;;5093082;28;20454;-76
2022/05/28 12:54:04;;;;;;;5.32;1.10;;;19.60;35.80;;;;;;5093044;28;20383;-76
2022/05/28 12:56:32;;;;;;;3.75;1.02;;;19.60;36.90;;;;;;5092989;28;20046;-76
2022/05/28 12:59:21;;;;;;;3.05;0.82;;;19.50;36.50;;;;;;5092943;28;20066;-76
2022/05/28 13:01:59;;;;;;;3.63;1.30;;;19.50;36.90;;;;;;5091848;28;20028;-76
2022/05/28 13:04:29;;;;;;;4.38;1.40;;;19.40;37.60;;;;;;5094013;28;20020;-76
2022/05/28 13:06:58;;;;;;;4.05;1.23;;;19.40;38.00;;;;;;5096829;28;20418;-76
2022/05/28 13:09:29;;;;;;;4.70;1.58;;;19.30;37.10;;;;;;5095700;28;20028;-77
2022/05/28 13:12:16;;;;;;;10.15;1.45;;;19.20;38.00;;;;;;5096804;28;20020;-76
2022/05/28 13:14:54;;;;;;;5.47;1.42;;;19.10;38.80;;;;;;5096892;28;20062;-76